createdAt,value
2022-11-13T00:02:46.347Z,100878.00
2022-11-13T00:05:33.024Z,100875.00
2022-11-13T00:08:20.932Z,100880.00
2022-11-13T00:11:10.410Z,100873.00
2022-11-13T00:13:57.274Z,100873.00
2022-11-13T00:16:44.081Z,100870.00
2022-11-13T00:19:30.777Z,100870.00
2022-11-13T00:22:17.622Z,100872.00
2022-11-13T00:25:06.559Z,100874.00
2022-11-13T00:27:53.195Z,100878.00
2022-11-13T00:30:39.839Z,100870.00
2022-11-13T00:33:54.998Z,100861.00
2022-11-13T00:36:33.075Z,100844.00
2022-11-13T00:39:19.917Z,100852.00
2022-11-13T00:42:07.749Z,100849.00
2022-11-13T00:44:54.472Z,100847.00
2022-11-13T00:47:41.040Z,100850.00
2022-11-13T00:50:27.646Z,100846.00
2022-11-13T00:53:18.092Z,100858.00
2022-11-13T00:56:05.569Z,100845.00
2022-11-13T00:58:53.684Z,100853.00
2022-11-13T01:01:40.568Z,100837.00
2022-11-13T01:04:29.940Z,100845.00
2022-11-13T01:07:16.516Z,100839.00
2022-11-13T01:10:03.560Z,100833.00
2022-11-13T01:12:50.269Z,100829.00
2022-11-13T01:15:40.894Z,100819.00
2022-11-13T01:18:27.739Z,100827.00
2022-11-13T01:21:17.709Z,100819.00
2022-11-13T01:24:04.856Z,100809.00
2022-11-13T01:26:51.629Z,100813.00
2022-11-13T01:29:39.142Z,100814.00
2022-11-13T01:32:26.955Z,100823.00
2022-11-13T01:35:13.596Z,100820.00
2022-11-13T01:38:00.245Z,100817.00
2022-11-13T01:40:47.181Z,100814.00
2022-11-13T01:43:37.205Z,100820.00
2022-11-13T01:46:29.157Z,100809.00
2022-11-13T01:49:28.150Z,100818.00
2022-11-13T01:52:20.378Z,100809.00
2022-11-13T01:55:11.969Z,100820.00
2022-11-13T01:57:59.947Z,100814.00
2022-11-13T02:00:47.293Z,100810.00
2022-11-13T02:03:34.216Z,100802.00
2022-11-13T02:06:23.171Z,100801.00
2022-11-13T02:09:12.181Z,100794.00
2022-11-13T02:11:59.955Z,100783.00
2022-11-13T02:14:52.043Z,100783.00
2022-11-13T02:17:45.409Z,100787.00
2022-11-13T02:20:41.853Z,100773.00
2022-11-13T02:23:46.644Z,100776.00
2022-11-13T02:26:35.002Z,100775.00
2022-11-13T02:29:21.736Z,100785.00
2022-11-13T02:32:08.732Z,100777.00
2022-11-13T02:34:55.534Z,100777.00
2022-11-13T02:37:42.595Z,100779.00
2022-11-13T02:40:30.316Z,100783.00
2022-11-13T02:43:18.043Z,100779.00
2022-11-13T02:46:04.821Z,100772.00
2022-11-13T02:48:51.192Z,100781.00
2022-11-13T02:51:38.014Z,100767.00
2022-11-13T02:54:24.818Z,100760.00
2022-11-13T02:57:11.680Z,100765.00
2022-11-13T02:59:59.820Z,100776.00
2022-11-13T03:02:46.527Z,100771.00
2022-11-13T03:05:33.304Z,100767.00
2022-11-13T03:08:20.705Z,100770.00
2022-11-13T03:11:12.588Z,100769.00
2022-11-13T03:13:59.103Z,100770.00
2022-11-13T03:16:47.025Z,100779.00
2022-11-13T03:19:33.660Z,100781.00
2022-11-13T03:22:20.415Z,100778.00
2022-11-13T03:25:10.712Z,100778.00
2022-11-13T03:27:58.017Z,100779.00
2022-11-13T03:30:44.568Z,100778.00
2022-11-13T03:33:33.374Z,100783.00
2022-11-13T03:36:19.863Z,100772.00
2022-11-13T03:39:06.844Z,100778.00
2022-11-13T03:41:54.036Z,100774.00
2022-11-13T03:44:41.040Z,100771.00
2022-11-13T03:47:27.928Z,100774.00
2022-11-13T03:50:16.711Z,100767.00
2022-11-13T03:53:03.573Z,100756.00
2022-11-13T03:55:50.354Z,100741.00
2022-11-13T03:58:40.126Z,100742.00
2022-11-13T04:01:27.251Z,100733.00
2022-11-13T04:04:13.978Z,100738.00
2022-11-13T04:07:02.251Z,100733.00
2022-11-13T04:09:48.941Z,100723.00
2022-11-13T04:12:35.699Z,100729.00
2022-11-13T04:15:22.892Z,100719.00
2022-11-13T04:18:09.735Z,100712.00
2022-11-13T04:21:01.039Z,100709.00
2022-11-13T04:23:48.881Z,100717.00
2022-11-13T04:26:35.443Z,100711.00
2022-11-13T04:29:22.289Z,100703.00
2022-11-13T04:32:09.071Z,100704.00
2022-11-13T04:34:55.587Z,100699.00
2022-11-13T04:37:42.344Z,100699.00
2022-11-13T04:40:30.457Z,100698.00
2022-11-13T04:43:16.173Z,100700.00
2022-11-13T04:46:02.809Z,100701.00
2022-11-13T04:48:49.405Z,100704.00
2022-11-13T04:51:36.240Z,100703.00
2022-11-13T04:54:28.524Z,100700.00
2022-11-13T04:57:16.795Z,100707.00
2022-11-13T05:00:06.251Z,100712.00
2022-11-13T05:02:53.163Z,100706.00
2022-11-13T05:05:39.859Z,100685.00
2022-11-13T05:08:26.905Z,100712.00
2022-11-13T05:11:14.328Z,100705.00
2022-11-13T05:14:03.646Z,100711.00
2022-11-13T05:16:51.616Z,100705.00
2022-11-13T05:19:38.505Z,100706.00
2022-11-13T05:22:25.265Z,100700.00
2022-11-13T05:25:12.020Z,100681.00
2022-11-13T05:27:59.175Z,100691.00
2022-11-13T05:30:47.241Z,100695.00
2022-11-13T05:33:34.149Z,100680.00
2022-11-13T05:36:22.811Z,100676.00
2022-11-13T05:39:09.380Z,100676.00
2022-11-13T05:41:55.966Z,100681.00
2022-11-13T05:44:42.713Z,100677.00
2022-11-13T05:47:30.541Z,100688.00
2022-11-13T05:50:17.731Z,100672.00
2022-11-13T05:53:04.414Z,100664.00
2022-11-13T05:55:51.146Z,100663.00
2022-11-13T05:58:38.503Z,100665.00
2022-11-13T06:01:28.709Z,100668.00
2022-11-13T06:04:16.712Z,100671.00
2022-11-13T06:07:03.537Z,100664.00
2022-11-13T06:09:50.482Z,100662.00
2022-11-13T06:12:37.003Z,100664.00
2022-11-13T06:15:23.496Z,100656.00
2022-11-13T06:18:09.940Z,100667.00
2022-11-13T06:21:02.714Z,100657.00
2022-11-13T06:23:50.013Z,100664.00
2022-11-13T06:26:38.711Z,100659.00
2022-11-13T06:29:25.506Z,100659.00
2022-11-13T06:32:12.104Z,100653.00
2022-11-13T06:34:58.426Z,100649.00
2022-11-13T06:37:47.265Z,100657.00
2022-11-13T06:40:33.684Z,100660.00
2022-11-13T06:43:20.292Z,100653.00
2022-11-13T06:46:11.174Z,100658.00
2022-11-13T06:48:58.317Z,100663.00
2022-11-13T06:51:44.875Z,100669.00
2022-11-13T06:54:32.877Z,100663.00
2022-11-13T06:57:19.765Z,100677.00
2022-11-13T07:00:08.408Z,100667.00
2022-11-13T07:02:55.272Z,100674.00
2022-11-13T07:05:41.828Z,100670.00
2022-11-13T07:08:28.942Z,100668.00
2022-11-13T07:11:21.662Z,100669.00
2022-11-13T07:14:11.617Z,100668.00
2022-11-13T07:17:09.140Z,100662.00
2022-11-13T07:19:56.677Z,100658.00
2022-11-13T07:22:43.603Z,100658.00
2022-11-13T07:25:32.076Z,100656.00
2022-11-13T07:28:20.115Z,100664.00
2022-11-13T07:31:08.568Z,100655.00
2022-11-13T07:33:55.158Z,100667.00
2022-11-13T07:36:41.803Z,100660.00
2022-11-13T07:39:28.704Z,100651.00
2022-11-13T07:42:15.515Z,100659.00
2022-11-13T07:45:04.351Z,100657.00
2022-11-13T07:47:50.874Z,100655.00
2022-11-13T07:50:39.352Z,100655.00
2022-11-13T07:53:26.234Z,100659.00
2022-11-13T07:56:13.008Z,100659.00
2022-11-13T07:58:59.839Z,100648.00
2022-11-13T08:01:48.061Z,100663.00
2022-11-13T08:04:34.617Z,100659.00
2022-11-13T08:07:21.201Z,100668.00
2022-11-13T08:10:08.939Z,100658.00
2022-11-13T08:13:01.488Z,100655.00
2022-11-13T08:15:47.912Z,100655.00
2022-11-13T08:18:35.981Z,100659.00
2022-11-13T08:21:23.129Z,100659.00
2022-11-13T08:24:10.838Z,100649.00
2022-11-13T08:26:58.105Z,100654.00
2022-11-13T08:29:45.371Z,100655.00
2022-11-13T08:32:32.191Z,100648.00
2022-11-13T08:35:25.222Z,100641.00
2022-11-13T08:38:15.717Z,100645.00
2022-11-13T08:41:08.568Z,100633.00
2022-11-13T08:43:56.197Z,100635.00
2022-11-13T08:46:42.969Z,100627.00
2022-11-13T08:49:29.557Z,100627.00
2022-11-13T08:52:18.523Z,100623.00
2022-11-13T08:55:05.971Z,100622.00
2022-11-13T08:57:53.908Z,100616.00
2022-11-13T09:00:40.860Z,100624.00
2022-11-13T09:03:27.707Z,100628.00
2022-11-13T09:06:14.631Z,100631.00
2022-11-13T09:09:03.192Z,100627.00
2022-11-13T09:11:50.526Z,100625.00
2022-11-13T09:14:37.866Z,100631.00
2022-11-13T09:17:24.454Z,100623.00
2022-11-13T09:20:14.060Z,100626.00
2022-11-13T09:23:04.390Z,100622.00
2022-11-13T09:25:52.193Z,100630.00
2022-11-13T09:28:38.932Z,100636.00
2022-11-13T09:31:25.723Z,100631.00
2022-11-13T09:34:12.295Z,100632.00
2022-11-13T09:36:58.994Z,100633.00
2022-11-13T09:39:45.807Z,100639.00
2022-11-13T09:42:36.225Z,100640.00
2022-11-13T09:45:23.512Z,100640.00
2022-11-13T09:48:26.734Z,100637.00
2022-11-13T09:51:19.375Z,100621.00
2022-11-13T09:54:08.715Z,100612.00
2022-11-13T09:57:12.358Z,100622.00
2022-11-13T10:00:05.002Z,100606.00
2022-11-13T10:03:13.631Z,100631.00
2022-11-13T10:06:14.844Z,100615.00
2022-11-13T10:09:10.266Z,100596.00
2022-11-13T10:12:02.410Z,100609.00
2022-11-13T10:14:53.813Z,100598.00
2022-11-13T10:17:47.101Z,100578.00
2022-11-13T10:20:42.180Z,100582.00
2022-11-13T10:23:33.395Z,100583.00
2022-11-13T10:26:24.583Z,100578.00
2022-11-13T10:29:15.798Z,100577.00
2022-11-13T10:32:21.562Z,100580.00
2022-11-13T10:35:32.589Z,100575.00
2022-11-13T10:38:31.717Z,100573.00
2022-11-13T10:41:21.189Z,100571.00
2022-11-13T10:44:21.154Z,100559.00
2022-11-13T10:47:26.388Z,100547.00
2022-11-13T10:50:27.213Z,100549.00
2022-11-13T10:53:17.853Z,100539.00
2022-11-13T10:56:21.373Z,100548.00
2022-11-13T10:59:13.707Z,100536.00
2022-11-13T11:02:18.032Z,100533.00
2022-11-13T11:05:08.077Z,100518.00
2022-11-13T11:07:58.209Z,100526.00
2022-11-13T11:11:15.389Z,100519.00
2022-11-13T11:14:18.690Z,100524.00
2022-11-13T11:17:07.084Z,100512.00
2022-11-13T11:20:01.630Z,100511.00
2022-11-13T11:22:53.743Z,100505.00
2022-11-13T11:25:49.949Z,100491.00
2022-11-13T11:28:44.077Z,100497.00
2022-11-13T11:31:40.299Z,100491.00
2022-11-13T11:34:37.797Z,100487.00
2022-11-13T11:37:34.354Z,100480.00
2022-11-13T11:40:30.230Z,100481.00
2022-11-13T11:43:34.073Z,100476.00
2022-11-13T11:46:25.567Z,100469.00
2022-11-13T11:49:12.640Z,100471.00
2022-11-13T11:52:15.809Z,100485.00
2022-11-13T11:55:51.504Z,100462.00
2022-11-13T11:59:14.113Z,100460.00
2022-11-13T12:03:06.038Z,100451.00
2022-11-13T12:06:08.446Z,100445.00
2022-11-13T12:09:05.550Z,100448.00
2022-11-13T12:12:02.144Z,100436.00
2022-11-13T12:15:04.257Z,100424.00
2022-11-13T12:18:05.880Z,100420.00
2022-11-13T12:21:09.927Z,100428.00
2022-11-13T12:24:37.552Z,100417.00
2022-11-13T12:27:35.383Z,100416.00
2022-11-13T12:30:36.300Z,100420.00
2022-11-13T12:33:38.817Z,100417.00
2022-11-13T12:36:26.614Z,100419.00
2022-11-13T12:39:34.394Z,100410.00
2022-11-13T12:42:34.190Z,100414.00
2022-11-13T12:45:43.771Z,100408.00
2022-11-13T12:48:36.293Z,100401.00
2022-11-13T12:51:23.329Z,100395.00
2022-11-13T12:54:11.459Z,100391.00
2022-11-13T12:57:19.785Z,100380.00
2022-11-13T13:00:24.971Z,100377.00
2022-11-13T13:03:40.171Z,100374.00
2022-11-13T13:06:52.290Z,100365.00
2022-11-13T13:09:54.290Z,100372.00
2022-11-13T13:12:55.421Z,100360.00
2022-11-13T13:15:47.327Z,100352.00
2022-11-13T13:18:37.653Z,100345.00
2022-11-13T13:21:24.466Z,100347.00
2022-11-13T13:24:31.395Z,100353.00
2022-11-13T13:27:26.947Z,100342.00
2022-11-13T13:30:20.030Z,100340.00
2022-11-13T13:33:23.111Z,100335.00
2022-11-13T13:36:24.996Z,100331.00
2022-11-13T13:39:38.729Z,100323.00
2022-11-13T13:42:53.108Z,100331.00
2022-11-13T13:45:52.896Z,100330.00
2022-11-13T13:48:43.290Z,100318.00
2022-11-13T13:51:37.809Z,100330.00
2022-11-13T13:54:29.889Z,100319.00
2022-11-13T13:57:17.840Z,100316.00
2022-11-13T14:00:05.296Z,100320.00
2022-11-13T14:02:54.567Z,100326.00
2022-11-13T14:05:41.432Z,100321.00
2022-11-13T14:08:30.300Z,100325.00
2022-11-13T14:11:20.962Z,100316.00
2022-11-13T14:14:18.692Z,100316.00
2022-11-13T14:17:05.622Z,100319.00
2022-11-13T14:19:53.698Z,100311.00
2022-11-13T14:22:41.427Z,100297.00
2022-11-13T14:25:30.756Z,100308.00
2022-11-13T14:28:20.465Z,100293.00
2022-11-13T14:31:10.392Z,100298.00
2022-11-13T14:33:58.815Z,100279.00
2022-11-13T14:36:45.694Z,100289.00
2022-11-13T14:39:35.460Z,100274.00
2022-11-13T14:42:36.552Z,100276.00
2022-11-13T14:45:27.001Z,100285.00
2022-11-13T14:48:26.021Z,100291.00
2022-11-13T14:51:25.527Z,100296.00
2022-11-13T14:54:53.220Z,100292.00
2022-11-13T14:57:49.867Z,100278.00
2022-11-13T15:00:39.048Z,100282.00
2022-11-13T15:03:28.574Z,100270.00
2022-11-13T15:06:18.333Z,100279.00
2022-11-13T15:09:12.468Z,100280.00
2022-11-13T15:11:59.259Z,100278.00
2022-11-13T15:14:47.877Z,100276.00
2022-11-13T15:17:34.585Z,100265.00
2022-11-13T15:20:26.302Z,100260.00
2022-11-13T15:33:00.262Z,100259.00
2022-11-13T15:35:47.032Z,100260.00
2022-11-13T15:38:33.829Z,100254.00
2022-11-13T15:41:23.427Z,100251.00
2022-11-13T15:44:15.661Z,100256.00
2022-11-13T15:47:03.881Z,100251.00
2022-11-13T15:50:09.694Z,100242.00
2022-11-13T15:53:05.453Z,100249.00
2022-11-13T15:55:52.504Z,100238.00
2022-11-13T15:58:39.372Z,100246.00
2022-11-13T16:01:26.134Z,100253.00
2022-11-13T16:04:16.182Z,100250.00
2022-11-13T16:07:03.096Z,100255.00
2022-11-13T16:09:50.063Z,100250.00
2022-11-13T16:12:37.002Z,100257.00
2022-11-13T16:15:24.602Z,100260.00
2022-11-13T16:18:23.918Z,100258.00
2022-11-13T16:21:14.683Z,100258.00
2022-11-13T16:24:01.339Z,100249.00
2022-11-13T16:26:52.684Z,100249.00
2022-11-13T16:29:39.426Z,100250.00
2022-11-13T16:32:26.764Z,100246.00
2022-11-13T16:35:15.140Z,100252.00
2022-11-13T16:38:03.709Z,100255.00
2022-11-13T16:40:50.286Z,100260.00
2022-11-13T16:43:37.205Z,100253.00
2022-11-13T16:46:30.571Z,100249.00
2022-11-13T16:49:19.466Z,100259.00
2022-11-13T16:52:06.345Z,100254.00
2022-11-13T16:54:54.570Z,100263.00
2022-11-13T16:57:42.496Z,100261.00
2022-11-13T17:00:28.992Z,100260.00
2022-11-13T17:03:15.515Z,100253.00
2022-11-13T17:06:02.459Z,100242.00
2022-11-13T17:08:51.794Z,100237.00
2022-11-13T17:11:39.735Z,100244.00
2022-11-13T17:14:26.212Z,100236.00
2022-11-13T17:17:14.491Z,100239.00
2022-11-13T17:20:01.102Z,100244.00
2022-11-13T17:22:49.175Z,100244.00
2022-11-13T17:25:36.120Z,100242.00
2022-11-13T17:28:24.203Z,100242.00
2022-11-13T17:31:13.469Z,100235.00
2022-11-13T17:34:00.275Z,100238.00
2022-11-13T17:36:47.476Z,100230.00
2022-11-13T17:39:34.381Z,100236.00
2022-11-13T17:42:21.174Z,100236.00
2022-11-13T17:45:11.589Z,100231.00
2022-11-13T17:47:59.352Z,100226.00
2022-11-13T17:50:46.364Z,100224.00
2022-11-13T17:53:33.750Z,100221.00
2022-11-13T17:56:20.361Z,100212.00
2022-11-13T17:59:10.970Z,100213.00
2022-11-13T18:01:59.133Z,100224.00
2022-11-13T18:04:45.729Z,100209.00
2022-11-13T18:07:32.593Z,100217.00
2022-11-13T18:10:19.484Z,100214.00
2022-11-13T18:13:06.283Z,100210.00
2022-11-13T18:15:52.965Z,100216.00
2022-11-13T18:18:41.820Z,100215.00
2022-11-13T18:21:32.404Z,100218.00
2022-11-13T18:24:20.366Z,100220.00
2022-11-13T18:27:08.092Z,100227.00
2022-11-13T18:29:54.938Z,100230.00
2022-11-13T18:32:41.575Z,100237.00
2022-11-13T18:35:29.617Z,100220.00
2022-11-13T18:38:16.088Z,100221.00
2022-11-13T18:41:06.455Z,100219.00
2022-11-13T18:43:54.081Z,100212.00
2022-11-13T18:46:41.304Z,100210.00
2022-11-13T18:49:27.854Z,100211.00
2022-11-13T18:52:16.156Z,100206.00
2022-11-13T18:55:02.878Z,100204.00
2022-11-13T18:57:49.482Z,100196.00
2022-11-13T19:00:36.247Z,100209.00
2022-11-13T19:03:23.452Z,100199.00
2022-11-13T19:06:14.178Z,100196.00
2022-11-13T19:09:06.459Z,100192.00
2022-11-13T19:11:55.006Z,100197.00
2022-11-13T19:14:42.973Z,100190.00
2022-11-13T19:17:29.594Z,100201.00
2022-11-13T19:20:18.521Z,100198.00
2022-11-13T19:23:09.233Z,100192.00
2022-11-13T19:25:57.680Z,100197.00
2022-11-13T19:28:48.810Z,100192.00
2022-11-13T19:31:35.799Z,100185.00
2022-11-13T19:34:22.628Z,100191.00
2022-11-13T19:37:09.472Z,100182.00
2022-11-13T19:39:56.332Z,100184.00
2022-11-13T19:42:44.390Z,100174.00
2022-11-13T19:45:31.132Z,100181.00
2022-11-13T19:48:19.024Z,100178.00
2022-11-13T19:51:09.554Z,100178.00
2022-11-13T19:53:59.003Z,100176.00
2022-11-13T19:56:45.584Z,100184.00
2022-11-13T19:59:34.561Z,100181.00
2022-11-13T20:02:21.121Z,100182.00
2022-11-13T20:05:08.444Z,100175.00
2022-11-13T20:07:58.305Z,100175.00
2022-11-13T20:10:44.904Z,100173.00
2022-11-13T20:13:34.398Z,100167.00
2022-11-13T20:16:23.507Z,100173.00
2022-11-13T20:19:10.316Z,100171.00
2022-11-13T20:21:57.175Z,100173.00
2022-11-13T20:24:44.015Z,100170.00
2022-11-13T20:27:32.035Z,100168.00
2022-11-13T20:30:19.685Z,100171.00
2022-11-13T20:33:07.554Z,100166.00
2022-11-13T20:35:54.932Z,100158.00
2022-11-13T20:38:42.132Z,100168.00
2022-11-13T20:41:28.889Z,100156.00
2022-11-13T20:44:15.819Z,100159.00
2022-11-13T20:47:02.308Z,100154.00
2022-11-13T20:49:50.409Z,100141.00
2022-11-13T20:52:36.971Z,100149.00
2022-11-13T20:55:23.500Z,100153.00
2022-11-13T20:58:10.076Z,100153.00
2022-11-13T21:01:03.670Z,100147.00
2022-11-13T21:03:52.735Z,100151.00
2022-11-13T21:06:40.880Z,100145.00
2022-11-13T21:09:27.692Z,100146.00
2022-11-13T21:12:14.166Z,100149.00
2022-11-13T21:15:00.802Z,100133.00
2022-11-13T21:17:47.614Z,100132.00
2022-11-13T21:20:34.834Z,100131.00
2022-11-13T21:23:22.708Z,100131.00
2022-11-13T21:26:10.328Z,100133.00
2022-11-13T21:28:57.368Z,100133.00
2022-11-13T21:31:43.941Z,100129.00
2022-11-13T21:34:30.538Z,100115.00
2022-11-13T21:37:17.101Z,100120.00
2022-11-13T21:40:06.101Z,100111.00
2022-11-13T21:42:52.787Z,100113.00
2022-11-13T21:45:39.331Z,100120.00
2022-11-13T21:48:31.922Z,100115.00
2022-11-13T21:51:19.673Z,100116.00
2022-11-13T21:54:07.419Z,100119.00
2022-11-13T21:56:55.509Z,100117.00
2022-11-13T21:59:42.188Z,100118.00
2022-11-13T22:02:29.033Z,100111.00
2022-11-13T22:05:15.910Z,100105.00
2022-11-13T22:08:02.748Z,100110.00
2022-11-13T22:10:49.400Z,100099.00
2022-11-13T22:13:38.489Z,100096.00
2022-11-13T22:16:27.082Z,100104.00
2022-11-13T22:19:17.180Z,100090.00
2022-11-13T22:22:03.889Z,100100.00
2022-11-13T22:24:50.557Z,100099.00
2022-11-13T22:27:37.430Z,100105.00
2022-11-13T22:30:25.371Z,100106.00
2022-11-13T22:33:11.930Z,100104.00
2022-11-13T22:36:03.911Z,100101.00
2022-11-13T22:38:50.992Z,100091.00
2022-11-13T22:41:38.074Z,100090.00
2022-11-13T22:44:35.065Z,100086.00
2022-11-13T22:47:37.062Z,100089.00
2022-11-13T22:50:24.647Z,100081.00
2022-11-13T22:53:14.563Z,100084.00
2022-11-13T22:56:06.421Z,100078.00
2022-11-13T22:58:55.779Z,100075.00
2022-11-13T23:01:44.059Z,100064.00
2022-11-13T23:04:31.798Z,100057.00
2022-11-13T23:07:18.498Z,100059.00
2022-11-13T23:10:06.284Z,100054.00
2022-11-13T23:12:53.456Z,100050.00
2022-11-13T23:15:39.880Z,100040.00
2022-11-13T23:18:26.587Z,100050.00
2022-11-13T23:21:15.971Z,100041.00
2022-11-13T23:24:02.464Z,100021.00
2022-11-13T23:26:49.337Z,100025.00
2022-11-13T23:29:36.185Z,100025.00
2022-11-13T23:32:22.808Z,100013.00
2022-11-13T23:35:10.240Z,100023.00
2022-11-13T23:37:58.072Z,100011.00
2022-11-13T23:40:44.493Z,100003.00
2022-11-13T23:44:02.175Z,100004.00
2022-11-13T23:46:38.842Z,100005.00
2022-11-13T23:49:25.696Z,100015.00
2022-11-13T23:52:12.395Z,100009.00
2022-11-13T23:55:00.549Z,100005.00
2022-11-13T23:57:47.181Z,100010.00
